sensor_id;sensor_type;location;lat;lon;timestamp;pressure;altitude;pressure_sealevel;temperature;humidity
7052;BME280;3567;52.444;13.556;2023-05-03T00:00:07;102296.38;;;9.18;64.50
7052;BME280;3567;52.444;13.556;2023-05-03T00:02:34;102298.56;;;9.15;65.33
7052;BME280;3567;52.444;13.556;2023-05-03T00:05:05;102304.94;;;9.14;65.09
7052;BME280;3567;52.444;13.556;2023-05-03T00:07:31;102305.31;;;9.11;66.27
7052;BME280;3567;52.444;13.556;2023-05-03T00:09:57;102311.00;;;9.08;66.17
7052;BME280;3567;52.444;13.556;2023-05-03T00:12:22;102308.69;;;9.05;66.77
7052;BME280;3567;52.444;13.556;2023-05-03T00:14:47;102307.22;;;9.02;67.42
7052;BME280;3567;52.444;13.556;2023-05-03T00:17:13;102305.72;;;9.00;67.72
7052;BME280;3567;52.444;13.556;2023-05-03T00:19:38;102304.25;;;8.97;67.93
7052;BME280;3567;52.444;13.556;2023-05-03T00:22:04;102311.63;;;8.95;67.90
7052;BME280;3567;52.444;13.556;2023-05-03T00:24:29;102304.28;;;8.89;68.12
7052;BME280;3567;52.444;13.556;2023-05-03T00:26:54;102305.50;;;8.86;68.20
7052;BME280;3567;52.444;13.556;2023-05-03T00:29:20;102299.66;;;8.83;68.62
7052;BME280;3567;52.444;13.556;2023-05-03T00:31:47;102307.22;;;8.79;68.60
7052;BME280;3567;52.444;13.556;2023-05-03T00:34:12;102308.59;;;8.75;69.42
7052;BME280;3567;52.444;13.556;2023-05-03T00:36:37;102309.31;;;8.69;69.80
7052;BME280;3567;52.444;13.556;2023-05-03T00:39:03;102305.66;;;8.62;69.72
7052;BME280;3567;52.444;13.556;2023-05-03T00:41:28;102307.38;;;8.55;69.10
7052;BME280;3567;52.444;13.556;2023-05-03T00:43:53;102312.44;;;8.50;70.14
7052;BME280;3567;52.444;13.556;2023-05-03T00:46:19;102303.28;;;8.44;69.70
7052;BME280;3567;52.444;13.556;2023-05-03T00:48:47;102307.31;;;8.40;69.88
7052;BME280;3567;52.444;13.556;2023-05-03T00:51:14;102311.31;;;8.36;70.08
7052;BME280;3567;52.444;13.556;2023-05-03T00:53:41;102318.00;;;8.32;71.33
7052;BME280;3567;52.444;13.556;2023-05-03T00:56:06;102308.69;;;8.28;70.89
7052;BME280;3567;52.444;13.556;2023-05-03T00:58:33;102307.34;;;8.24;72.17
7052;BME280;3567;52.444;13.556;2023-05-03T01:01:01;102302.06;;;8.16;72.22
7052;BME280;3567;52.444;13.556;2023-05-03T01:03:26;102310.09;;;8.07;71.84
7052;BME280;3567;52.444;13.556;2023-05-03T01:06:17;102308.47;;;7.98;71.28
7052;BME280;3567;52.444;13.556;2023-05-03T01:14:58;102304.56;;;7.70;72.73
7052;BME280;3567;52.444;13.556;2023-05-03T01:17:28;102299.44;;;7.60;73.20
7052;BME280;3567;52.444;13.556;2023-05-03T01:19:56;102309.44;;;7.50;72.81
7052;BME280;3567;52.444;13.556;2023-05-03T01:25:16;102309.81;;;7.30;74.02
7052;BME280;3567;52.444;13.556;2023-05-03T01:27:42;102313.81;;;7.26;74.96
7052;BME280;3567;52.444;13.556;2023-05-03T01:30:09;102306.66;;;7.19;74.49
7052;BME280;3567;52.444;13.556;2023-05-03T01:35:56;102316.69;;;7.08;74.85
7052;BME280;3567;52.444;13.556;2023-05-03T01:38:25;102313.16;;;7.00;75.44
7052;BME280;3567;52.444;13.556;2023-05-03T01:40:52;102315.50;;;6.95;75.53
7052;BME280;3567;52.444;13.556;2023-05-03T01:43:19;102312.66;;;6.88;76.73
7052;BME280;3567;52.444;13.556;2023-05-03T01:45:45;102311.81;;;6.79;77.41
7052;BME280;3567;52.444;13.556;2023-05-03T01:48:14;102314.63;;;6.70;78.06
7052;BME280;3567;52.444;13.556;2023-05-03T01:50:40;102314.78;;;6.60;78.80
7052;BME280;3567;52.444;13.556;2023-05-03T01:53:05;102317.59;;;6.50;79.04
7052;BME280;3567;52.444;13.556;2023-05-03T01:55:30;102312.91;;;6.44;79.31
7052;BME280;3567;52.444;13.556;2023-05-03T01:57:56;102317.75;;;6.41;79.11
7052;BME280;3567;52.444;13.556;2023-05-03T02:00:21;102318.06;;;6.38;79.24
7052;BME280;3567;52.444;13.556;2023-05-03T02:02:47;102322.03;;;6.34;79.32
7052;BME280;3567;52.444;13.556;2023-05-03T02:05:12;102314.22;;;6.32;79.32
7052;BME280;3567;52.444;13.556;2023-05-03T02:07:38;102319.53;;;6.32;79.42
7052;BME280;3567;52.444;13.556;2023-05-03T02:10:04;102323.84;;;6.33;80.22
7052;BME280;3567;52.444;13.556;2023-05-03T02:12:30;102322.66;;;6.27;80.50
7052;BME280;3567;52.444;13.556;2023-05-03T02:14:55;102329.66;;;6.20;82.00
7052;BME280;3567;52.444;13.556;2023-05-03T02:17:20;102323.31;;;6.13;81.92
7052;BME280;3567;52.444;13.556;2023-05-03T02:19:51;102328.56;;;6.05;81.56
7052;BME280;3567;52.444;13.556;2023-05-03T02:22:16;102328.41;;;5.98;81.52
7052;BME280;3567;52.444;13.556;2023-05-03T02:24:42;102335.19;;;5.93;82.88
7052;BME280;3567;52.444;13.556;2023-05-03T02:27:07;102333.13;;;5.87;81.90
7052;BME280;3567;52.444;13.556;2023-05-03T02:29:32;102328.28;;;5.82;83.34
7052;BME280;3567;52.444;13.556;2023-05-03T02:31:58;102327.91;;;5.77;83.06
7052;BME280;3567;52.444;13.556;2023-05-03T02:34:23;102337.50;;;5.70;83.30
7052;BME280;3567;52.444;13.556;2023-05-03T02:36:49;102338.00;;;5.65;82.67
7052;BME280;3567;52.444;13.556;2023-05-03T02:39:14;102340.94;;;5.62;83.77
7052;BME280;3567;52.444;13.556;2023-05-03T02:41:39;102345.59;;;5.60;84.03
7052;BME280;3567;52.444;13.556;2023-05-03T02:44:05;102337.09;;;5.57;84.17
7052;BME280;3567;52.444;13.556;2023-05-03T02:46:30;102345.06;;;5.57;84.48
7052;BME280;3567;52.444;13.556;2023-05-03T02:48:55;102352.06;;;5.58;84.17
7052;BME280;3567;52.444;13.556;2023-05-03T02:51:21;102352.88;;;5.58;83.21
7052;BME280;3567;52.444;13.556;2023-05-03T02:53:46;102354.41;;;5.61;84.74
7052;BME280;3567;52.444;13.556;2023-05-03T02:56:12;102347.25;;;5.61;83.67
7052;BME280;3567;52.444;13.556;2023-05-03T02:58:37;102352.25;;;5.64;83.45
7052;BME280;3567;52.444;13.556;2023-05-03T03:01:03;102358.44;;;5.65;84.12
7052;BME280;3567;52.444;13.556;2023-05-03T03:03:28;102353.25;;;5.63;84.50
7052;BME280;3567;52.444;13.556;2023-05-03T03:05:54;102359.56;;;5.62;84.03
7052;BME280;3567;52.444;13.556;2023-05-03T03:08:19;102361.56;;;5.60;84.60
7052;BME280;3567;52.444;13.556;2023-05-03T03:10:44;102363.84;;;5.55;84.65
7052;BME280;3567;52.444;13.556;2023-05-03T03:13:10;102354.34;;;5.52;84.63
7052;BME280;3567;52.444;13.556;2023-05-03T03:15:35;102356.00;;;5.53;84.70
7052;BME280;3567;52.444;13.556;2023-05-03T03:18:00;102357.53;;;5.56;84.31
7052;BME280;3567;52.444;13.556;2023-05-03T03:20:26;102365.50;;;5.56;84.00
7052;BME280;3567;52.444;13.556;2023-05-03T03:22:52;102369.16;;;5.55;84.51
7052;BME280;3567;52.444;13.556;2023-05-03T03:25:18;102368.47;;;5.53;84.15
7052;BME280;3567;52.444;13.556;2023-05-03T03:27:43;102372.94;;;5.52;85.19
7052;BME280;3567;52.444;13.556;2023-05-03T03:30:09;102378.44;;;5.51;85.53
7052;BME280;3567;52.444;13.556;2023-05-03T03:32:35;102372.28;;;5.50;84.66
7052;BME280;3567;52.444;13.556;2023-05-03T03:35:01;102381.09;;;5.51;85.64
7052;BME280;3567;52.444;13.556;2023-05-03T03:37:26;102379.25;;;5.51;84.89
7052;BME280;3567;52.444;13.556;2023-05-03T03:39:52;102376.06;;;5.48;85.11
7052;BME280;3567;52.444;13.556;2023-05-03T03:42:18;102381.53;;;5.46;84.95
7052;BME280;3567;52.444;13.556;2023-05-03T03:44:43;102390.69;;;5.44;85.26
7052;BME280;3567;52.444;13.556;2023-05-03T03:47:08;102392.78;;;5.40;85.34
7052;BME280;3567;52.444;13.556;2023-05-03T03:49:34;102391.44;;;5.36;85.05
7052;BME280;3567;52.444;13.556;2023-05-03T03:52:00;102395.06;;;5.35;85.54
7052;BME280;3567;52.444;13.556;2023-05-03T03:54:25;102396.06;;;5.34;86.53
7052;BME280;3567;52.444;13.556;2023-05-03T03:56:50;102392.59;;;5.34;86.57
7052;BME280;3567;52.444;13.556;2023-05-03T03:59:16;102399.84;;;5.32;86.30
7052;BME280;3567;52.444;13.556;2023-05-03T04:01:41;102403.50;;;5.31;86.19
7052;BME280;3567;52.444;13.556;2023-05-03T04:04:07;102402.38;;;5.33;85.64
7052;BME280;3567;52.444;13.556;2023-05-03T04:06:32;102407.69;;;5.33;86.25
7052;BME280;3567;52.444;13.556;2023-05-03T04:08:57;102406.69;;;5.34;86.65
7052;BME280;3567;52.444;13.556;2023-05-03T04:11:23;102414.50;;;5.36;86.22
7052;BME280;3567;52.444;13.556;2023-05-03T04:13:49;102406.38;;;5.37;85.59
7052;BME280;3567;52.444;13.556;2023-05-03T04:16:14;102414.88;;;5.41;85.77
7052;BME280;3567;52.444;13.556;2023-05-03T04:18:40;102422.41;;;5.45;86.68
7052;BME280;3567;52.444;13.556;2023-05-03T04:21:06;102422.25;;;5.47;86.50
7052;BME280;3567;52.444;13.556;2023-05-03T04:23:32;102425.28;;;5.52;86.75
7052;BME280;3567;52.444;13.556;2023-05-03T04:25:57;102432.25;;;5.53;86.06
7052;BME280;3567;52.444;13.556;2023-05-03T04:28:22;102436.28;;;5.57;86.05
7052;BME280;3567;52.444;13.556;2023-05-03T04:30:49;102432.34;;;5.61;85.53
7052;BME280;3567;52.444;13.556;2023-05-03T04:33:14;102437.03;;;5.67;86.21
7052;BME280;3567;52.444;13.556;2023-05-03T04:35:40;102438.41;;;5.71;85.75
7052;BME280;3567;52.444;13.556;2023-05-03T04:38:05;102436.94;;;5.77;85.88
7052;BME280;3567;52.444;13.556;2023-05-03T04:40:31;102435.47;;;5.83;85.04
7052;BME280;3567;52.444;13.556;2023-05-03T04:42:56;102449.16;;;5.88;84.55
7052;BME280;3567;52.444;13.556;2023-05-03T04:45:22;102447.72;;;5.93;85.21
7052;BME280;3567;52.444;13.556;2023-05-03T04:47:48;102442.59;;;6.00;84.48
7052;BME280;3567;52.444;13.556;2023-05-03T04:50:13;102439.31;;;6.06;84.27
7052;BME280;3567;52.444;13.556;2023-05-03T04:52:39;102450.03;;;6.14;85.42
7052;BME280;3567;52.444;13.556;2023-05-03T04:55:04;102451.75;;;6.23;84.41
7052;BME280;3567;52.444;13.556;2023-05-03T04:57:30;102452.31;;;6.35;83.38
7052;BME280;3567;52.444;13.556;2023-05-03T04:59:59;102450.50;;;6.44;83.29
7052;BME280;3567;52.444;13.556;2023-05-03T05:02:24;102456.53;;;6.54;82.95
7052;BME280;3567;52.444;13.556;2023-05-03T05:04:51;102452.25;;;6.61;82.58
7052;BME280;3567;52.444;13.556;2023-05-03T05:07:16;102454.94;;;6.69;82.30
7052;BME280;3567;52.444;13.556;2023-05-03T05:09:42;102450.63;;;6.76;81.78
7052;BME280;3567;52.444;13.556;2023-05-03T05:12:07;102450.00;;;6.82;81.29
7052;BME280;3567;52.444;13.556;2023-05-03T05:14:33;102453.84;;;6.88;81.03
7052;BME280;3567;52.444;13.556;2023-05-03T05:16:58;102453.19;;;6.94;80.56
7052;BME280;3567;52.444;13.556;2023-05-03T05:19:24;102450.88;;;6.99;80.01
7052;BME280;3567;52.444;13.556;2023-05-03T05:21:50;102456.38;;;7.06;80.32
7052;BME280;3567;52.444;13.556;2023-05-03T05:24:15;102459.06;;;7.14;79.98
7052;BME280;3567;52.444;13.556;2023-05-03T05:26:42;102456.75;;;7.19;79.20
7052;BME280;3567;52.444;13.556;2023-05-03T05:29:08;102461.44;;;7.25;79.74
7052;BME280;3567;52.444;13.556;2023-05-03T05:31:33;102464.44;;;7.30;78.96
7052;BME280;3567;52.444;13.556;2023-05-03T05:33:59;102465.44;;;7.38;78.69
7052;BME280;3567;52.444;13.556;2023-05-03T05:36:25;102468.13;;;7.46;78.46
7052;BME280;3567;52.444;13.556;2023-05-03T05:38:50;102462.13;;;7.52;78.03
7052;BME280;3567;52.444;13.556;2023-05-03T05:41:16;102470.78;;;7.54;78.16
7052;BME280;3567;52.444;13.556;2023-05-03T05:43:41;102469.44;;;7.58;77.58
7052;BME280;3567;52.444;13.556;2023-05-03T05:46:07;102472.78;;;7.68;77.05
7052;BME280;3567;52.444;13.556;2023-05-03T05:48:32;102476.28;;;7.77;76.15
7052;BME280;3567;52.444;13.556;2023-05-03T05:50:58;102477.44;;;7.82;75.98
7052;BME280;3567;52.444;13.556;2023-05-03T05:53:23;102479.13;;;7.83;75.74
7052;BME280;3567;52.444;13.556;2023-05-03T05:55:49;102473.44;;;7.86;76.18
7052;BME280;3567;52.444;13.556;2023-05-03T05:58:14;102479.94;;;7.92;76.23
7052;BME280;3567;52.444;13.556;2023-05-03T06:00:40;102482.09;;;7.97;75.00
7052;BME280;3567;52.444;13.556;2023-05-03T06:03:06;102481.09;;;8.06;75.05
7052;BME280;3567;52.444;13.556;2023-05-03T06:05:31;102478.72;;;8.19;74.81
7052;BME280;3567;52.444;13.556;2023-05-03T06:07:57;102476.06;;;8.27;74.56
7052;BME280;3567;52.444;13.556;2023-05-03T06:10:22;102477.38;;;8.31;73.94
7052;BME280;3567;52.444;13.556;2023-05-03T06:12:47;102482.72;;;8.31;73.22
7052;BME280;3567;52.444;13.556;2023-05-03T06:15:13;102480.38;;;8.28;73.12
7052;BME280;3567;52.444;13.556;2023-05-03T06:17:38;102480.88;;;8.32;73.36
7052;BME280;3567;52.444;13.556;2023-05-03T06:20:04;102486.69;;;8.35;73.95
7052;BME280;3567;52.444;13.556;2023-05-03T06:22:30;102491.41;;;8.42;73.57
7052;BME280;3567;52.444;13.556;2023-05-03T06:24:56;102488.88;;;8.48;73.43
7052;BME280;3567;52.444;13.556;2023-05-03T06:27:21;102490.84;;;8.54;73.74
7052;BME280;3567;52.444;13.556;2023-05-03T06:29:47;102493.97;;;8.66;72.71
7052;BME280;3567;52.444;13.556;2023-05-03T06:32:14;102495.94;;;8.80;72.63
7052;BME280;3567;52.444;13.556;2023-05-03T06:34:39;102485.19;;;8.88;72.24
7052;BME280;3567;52.444;13.556;2023-05-03T06:37:04;102495.53;;;8.91;71.50
7052;BME280;3567;52.444;13.556;2023-05-03T06:39:30;102492.50;;;8.95;71.25
7052;BME280;3567;52.444;13.556;2023-05-03T06:41:56;102486.19;;;8.96;70.89
7052;BME280;3567;52.444;13.556;2023-05-03T06:44:21;102489.16;;;9.01;70.61
7052;BME280;3567;52.444;13.556;2023-05-03T06:46:47;102490.63;;;9.03;70.74
7052;BME280;3567;52.444;13.556;2023-05-03T06:49:13;102485.41;;;9.10;70.06
7052;BME280;3567;52.444;13.556;2023-05-03T06:51:38;102484.88;;;9.14;69.54
7052;BME280;3567;52.444;13.556;2023-05-03T06:54:03;102483.03;;;9.15;69.18
7052;BME280;3567;52.444;13.556;2023-05-03T06:56:36;102493.41;;;9.18;68.61
7052;BME280;3567;52.444;13.556;2023-05-03T06:59:02;102497.25;;;9.15;69.21
7052;BME280;3567;52.444;13.556;2023-05-03T07:01:31;102492.56;;;9.17;67.61
7052;BME280;3567;52.444;13.556;2023-05-03T07:03:56;102501.06;;;9.21;68.08
7052;BME280;3567;52.444;13.556;2023-05-03T07:06:22;102488.66;;;9.28;66.74
7052;BME280;3567;52.444;13.556;2023-05-03T07:08:51;102491.94;;;9.38;66.32
7052;BME280;3567;52.444;13.556;2023-05-03T07:11:21;102482.38;;;9.44;65.43
7052;BME280;3567;52.444;13.556;2023-05-03T07:13:49;102489.16;;;9.55;64.83
7052;BME280;3567;52.444;13.556;2023-05-03T07:16:15;102492.84;;;9.54;63.56
7052;BME280;3567;52.444;13.556;2023-05-03T07:18:40;102488.13;;;9.56;63.80
7052;BME280;3567;52.444;13.556;2023-05-03T07:21:05;102486.38;;;9.63;62.12
7052;BME280;3567;52.444;13.556;2023-05-03T07:23:31;102488.78;;;9.58;62.71
7052;BME280;3567;52.444;13.556;2023-05-03T07:25:56;102483.91;;;9.61;63.10
7052;BME280;3567;52.444;13.556;2023-05-03T07:28:22;102493.75;;;9.84;63.68
7052;BME280;3567;52.444;13.556;2023-05-03T07:30:47;102497.03;;;10.09;63.50
7052;BME280;3567;52.444;13.556;2023-05-03T07:33:13;102495.97;;;10.33;63.26
7052;BME280;3567;52.444;13.556;2023-05-03T07:35:38;102481.84;;;10.54;60.98
7052;BME280;3567;52.444;13.556;2023-05-03T07:38:03;102488.78;;;10.63;60.66
7052;BME280;3567;52.444;13.556;2023-05-03T07:40:29;102484.53;;;10.68;60.78
7052;BME280;3567;52.444;13.556;2023-05-03T07:42:59;102486.09;;;10.78;59.69
7052;BME280;3567;52.444;13.556;2023-05-03T07:45:25;102481.84;;;10.68;59.37
7052;BME280;3567;52.444;13.556;2023-05-03T07:47:51;102485.16;;;10.70;59.69
7052;BME280;3567;52.444;13.556;2023-05-03T07:50:16;102475.81;;;10.81;59.84
7052;BME280;3567;52.444;13.556;2023-05-03T07:52:42;102470.88;;;10.99;58.63
7052;BME280;3567;52.444;13.556;2023-05-03T07:55:08;102463.44;;;11.16;57.16
7052;BME280;3567;52.444;13.556;2023-05-03T07:57:33;102462.50;;;11.24;56.26
7052;BME280;3567;52.444;13.556;2023-05-03T07:59:58;102459.06;;;11.30;56.32
7052;BME280;3567;52.444;13.556;2023-05-03T08:02:24;102461.66;;;11.23;57.19
7052;BME280;3567;52.444;13.556;2023-05-03T08:04:50;102461.47;;;11.25;56.02
7052;BME280;3567;52.444;13.556;2023-05-03T08:07:15;102459.72;;;11.17;55.83
7052;BME280;3567;52.444;13.556;2023-05-03T08:09:41;102466.91;;;11.32;56.47
7052;BME280;3567;52.444;13.556;2023-05-03T08:12:07;102465.09;;;11.39;55.67
7052;BME280;3567;52.444;13.556;2023-05-03T08:14:32;102461.06;;;11.49;55.08
7052;BME280;3567;52.444;13.556;2023-05-03T08:16:58;102456.66;;;11.63;54.57
7052;BME280;3567;52.444;13.556;2023-05-03T08:19:24;102452.22;;;11.77;53.57
7052;BME280;3567;52.444;13.556;2023-05-03T08:21:49;102449.59;;;12.05;52.60
7052;BME280;3567;52.444;13.556;2023-05-03T08:24:16;102442.66;;;12.24;51.96
7052;BME280;3567;52.444;13.556;2023-05-03T08:26:41;102441.34;;;12.41;50.71
7052;BME280;3567;52.444;13.556;2023-05-03T08:29:10;102436.16;;;12.46;51.16
7052;BME280;3567;52.444;13.556;2023-05-03T08:31:35;102445.72;;;12.55;51.65
7052;BME280;3567;52.444;13.556;2023-05-03T08:34:01;102445.56;;;12.64;51.68
7052;BME280;3567;52.444;13.556;2023-05-03T08:36:27;102443.16;;;12.82;51.83
7052;BME280;3567;52.444;13.556;2023-05-03T08:38:53;102442.31;;;12.81;50.80
7052;BME280;3567;52.444;13.556;2023-05-03T08:41:21;102447.78;;;13.01;51.28
7052;BME280;3567;52.444;13.556;2023-05-03T08:43:54;102438.78;;;13.55;50.46
7052;BME280;3567;52.444;13.556;2023-05-03T08:46:21;102440.59;;;13.95;48.83
7052;BME280;3567;52.444;13.556;2023-05-03T08:48:48;102442.47;;;14.07;48.13
7052;BME280;3567;52.444;13.556;2023-05-03T08:51:18;102438.13;;;14.06;47.54
7052;BME280;3567;52.444;13.556;2023-05-03T08:53:44;102435.22;;;14.01;47.88
7052;BME280;3567;52.444;13.556;2023-05-03T08:56:11;102442.22;;;14.29;47.76
7052;BME280;3567;52.444;13.556;2023-05-03T08:58:39;102442.19;;;14.35;46.32
7052;BME280;3567;52.444;13.556;2023-05-03T09:01:06;102429.97;;;14.33;46.59
7052;BME280;3567;52.444;13.556;2023-05-03T09:03:32;102438.88;;;14.33;46.06
7052;BME280;3567;52.444;13.556;2023-05-03T09:05:58;102427.50;;;14.25;46.39
7052;BME280;3567;52.444;13.556;2023-05-03T09:08:29;102431.25;;;14.24;45.76
7052;BME280;3567;52.444;13.556;2023-05-03T09:10:56;102425.03;;;14.23;45.48
7052;BME280;3567;52.444;13.556;2023-05-03T09:13:29;102428.09;;;14.27;45.34
7052;BME280;3567;52.444;13.556;2023-05-03T09:15:55;102428.34;;;14.19;44.32
7052;BME280;3567;52.444;13.556;2023-05-03T09:18:21;102433.09;;;14.16;45.32
7052;BME280;3567;52.444;13.556;2023-05-03T09:20:48;102426.44;;;14.39;44.59
7052;BME280;3567;52.444;13.556;2023-05-03T09:23:37;102423.72;;;14.39;43.40
7052;BME280;3567;52.444;13.556;2023-05-03T09:26:03;102429.53;;;14.49;44.66
7052;BME280;3567;52.444;13.556;2023-05-03T09:28:39;102433.03;;;14.56;42.79
7052;BME280;3567;52.444;13.556;2023-05-03T09:31:05;102431.78;;;14.46;44.02
7052;BME280;3567;52.444;13.556;2023-05-03T09:33:32;102428.22;;;14.58;43.99
7052;BME280;3567;52.444;13.556;2023-05-03T09:36:03;102432.00;;;14.51;43.95
7052;BME280;3567;52.444;13.556;2023-05-03T09:38:31;102428.69;;;14.42;43.68
7052;BME280;3567;52.444;13.556;2023-05-03T09:40:58;102429.97;;;14.33;43.94
7052;BME280;3567;52.444;13.556;2023-05-03T09:43:23;102425.00;;;14.30;43.38
7052;BME280;3567;52.444;13.556;2023-05-03T09:45:49;102436.41;;;14.25;43.47
7052;BME280;3567;52.444;13.556;2023-05-03T09:48:15;102429.53;;;14.36;43.53
7052;BME280;3567;52.444;13.556;2023-05-03T09:50:41;102421.63;;;14.54;43.32
7052;BME280;3567;52.444;13.556;2023-05-03T09:53:07;102416.06;;;14.49;43.02
7052;BME280;3567;52.444;13.556;2023-05-03T09:55:34;102416.66;;;14.51;43.68
7052;BME280;3567;52.444;13.556;2023-05-03T09:58:01;102413.56;;;14.41;43.18
7052;BME280;3567;52.444;13.556;2023-05-03T10:00:32;102419.13;;;14.46;43.61
7052;BME280;3567;52.444;13.556;2023-05-03T10:02:59;102418.50;;;14.57;43.88
7052;BME280;3567;52.444;13.556;2023-05-03T10:05:27;102414.59;;;14.40;43.98
7052;BME280;3567;52.444;13.556;2023-05-03T10:07:56;102422.25;;;14.43;45.46
7052;BME280;3567;52.444;13.556;2023-05-03T10:10:22;102415.41;;;14.47;44.88
7052;BME280;3567;52.444;13.556;2023-05-03T10:12:48;102419.97;;;14.47;45.05
7052;BME280;3567;52.444;13.556;2023-05-03T10:15:20;102408.22;;;14.79;44.17
7052;BME280;3567;52.444;13.556;2023-05-03T10:17:50;102403.31;;;15.01;42.88
7052;BME280;3567;52.444;13.556;2023-05-03T10:20:30;102405.72;;;15.16;42.81
7052;BME280;3567;52.444;13.556;2023-05-03T10:25:28;102403.66;;;15.11;42.66
7052;BME280;3567;52.444;13.556;2023-05-03T10:28:00;102388.91;;;15.14;42.25
7052;BME280;3567;52.444;13.556;2023-05-03T10:32:54;102402.91;;;15.54;42.88
7052;BME280;3567;52.444;13.556;2023-05-03T10:35:19;102388.44;;;15.74;41.31
7052;BME280;3567;52.444;13.556;2023-05-03T10:37:47;102385.00;;;15.85;41.25
7052;BME280;3567;52.444;13.556;2023-05-03T10:40:16;102387.94;;;16.02;40.63
7052;BME280;3567;52.444;13.556;2023-05-03T10:50:37;102385.84;;;15.85;42.13
7052;BME280;3567;52.444;13.556;2023-05-03T10:53:02;102384.28;;;16.14;42.28
7052;BME280;3567;52.444;13.556;2023-05-03T10:55:27;102385.91;;;16.34;40.77
7052;BME280;3567;52.444;13.556;2023-05-03T10:57:55;102381.56;;;16.33;41.01
7052;BME280;3567;52.444;13.556;2023-05-03T11:00:34;102373.53;;;16.26;40.74
7052;BME280;3567;52.444;13.556;2023-05-03T11:05:37;102380.66;;;16.02;41.57
7052;BME280;3567;52.444;13.556;2023-05-03T11:08:14;102376.72;;;16.53;39.75
7052;BME280;3567;52.444;13.556;2023-05-03T11:10:43;102368.97;;;16.75;39.73
7052;BME280;3567;52.444;13.556;2023-05-03T11:13:10;102366.13;;;17.00;39.54
7052;BME280;3567;52.444;13.556;2023-05-03T11:15:36;102364.38;;;17.29;39.54
7052;BME280;3567;52.444;13.556;2023-05-03T11:18:02;102352.97;;;17.62;38.51
7052;BME280;3567;52.444;13.556;2023-05-03T11:20:28;102354.88;;;17.97;38.82
7052;BME280;3567;52.444;13.556;2023-05-03T11:22:55;102350.03;;;18.39;38.41
7052;BME280;3567;52.444;13.556;2023-05-03T11:25:20;102346.16;;;18.35;37.48
7052;BME280;3567;52.444;13.556;2023-05-03T11:27:45;102346.50;;;18.39;36.80
7052;BME280;3567;52.444;13.556;2023-05-03T11:30:12;102351.78;;;18.45;37.31
7052;BME280;3567;52.444;13.556;2023-05-03T11:32:37;102347.56;;;18.38;36.71
7052;BME280;3567;52.444;13.556;2023-05-03T11:35:04;102338.81;;;18.76;37.08
7052;BME280;3567;52.444;13.556;2023-05-03T11:37:30;102319.66;;;18.82;35.16
7052;BME280;3567;52.444;13.556;2023-05-03T11:39:56;102335.94;;;18.82;35.63
7052;BME280;3567;52.444;13.556;2023-05-03T11:42:22;102335.63;;;18.96;35.37
7052;BME280;3567;52.444;13.556;2023-05-03T11:44:50;102326.44;;;18.97;34.44
7052;BME280;3567;52.444;13.556;2023-05-03T11:47:15;102321.88;;;19.36;34.67
7052;BME280;3567;52.444;13.556;2023-05-03T11:49:51;102317.28;;;19.75;33.21
7052;BME280;3567;52.444;13.556;2023-05-03T11:52:22;102308.28;;;20.13;32.74
7052;BME280;3567;52.444;13.556;2023-05-03T11:54:48;102302.97;;;20.29;32.73
7052;BME280;3567;52.444;13.556;2023-05-03T11:57:13;102304.25;;;20.21;32.65
7052;BME280;3567;52.444;13.556;2023-05-03T11:59:40;102307.19;;;19.93;32.94
7052;BME280;3567;52.444;13.556;2023-05-03T12:02:08;102302.81;;;19.70;31.12
7052;BME280;3567;52.444;13.556;2023-05-03T12:04:35;102300.84;;;19.65;31.70
7052;BME280;3567;52.444;13.556;2023-05-03T12:07:02;102293.97;;;19.79;31.26
7052;BME280;3567;52.444;13.556;2023-05-03T12:09:28;102291.31;;;19.84;31.40
7052;BME280;3567;52.444;13.556;2023-05-03T12:11:54;102284.59;;;20.14;30.29
7052;BME280;3567;52.444;13.556;2023-05-03T12:14:20;102279.47;;;20.45;30.55
7052;BME280;3567;52.444;13.556;2023-05-03T12:16:47;102280.91;;;20.47;30.55
7052;BME280;3567;52.444;13.556;2023-05-03T12:19:28;102277.41;;;20.52;29.83
7052;BME280;3567;52.444;13.556;2023-05-03T12:21:54;102271.09;;;20.46;30.36
7052;BME280;3567;52.444;13.556;2023-05-03T12:24:20;102278.41;;;20.73;31.07
7052;BME280;3567;52.444;13.556;2023-05-03T12:26:47;102282.94;;;20.94;30.39
7052;BME280;3567;52.444;13.556;2023-05-03T12:29:13;102268.72;;;20.87;29.85
7052;BME280;3567;52.444;13.556;2023-05-03T12:31:40;102272.78;;;20.84;30.27
7052;BME280;3567;52.444;13.556;2023-05-03T12:34:05;102269.28;;;20.89;30.47
7052;BME280;3567;52.444;13.556;2023-05-03T12:36:32;102281.19;;;21.15;30.53
7052;BME280;3567;52.444;13.556;2023-05-03T12:38:58;102274.13;;;21.19;29.87
7052;BME280;3567;52.444;13.556;2023-05-03T12:41:23;102264.38;;;20.91;29.10
7052;BME280;3567;52.444;13.556;2023-05-03T12:43:52;102272.16;;;20.72;29.66
7052;BME280;3567;52.444;13.556;2023-05-03T12:46:17;102276.34;;;20.85;30.02
7052;BME280;3567;52.444;13.556;2023-05-03T12:48:42;102270.47;;;20.71;30.16
7052;BME280;3567;52.444;13.556;2023-05-03T12:51:08;102270.25;;;20.73;30.99
7052;BME280;3567;52.444;13.556;2023-05-03T12:53:33;102269.31;;;20.94;30.90
7052;BME280;3567;52.444;13.556;2023-05-03T12:55:59;102266.75;;;21.19;29.66
7052;BME280;3567;52.444;13.556;2023-05-03T12:58:25;102264.66;;;21.27;29.05
7052;BME280;3567;52.444;13.556;2023-05-03T13:00:51;102261.47;;;21.40;29.64
7052;BME280;3567;52.444;13.556;2023-05-03T13:03:16;102266.22;;;21.60;29.91
7052;BME280;3567;52.444;13.556;2023-05-03T13:05:42;102253.31;;;21.45;29.28
7052;BME280;3567;52.444;13.556;2023-05-03T13:08:07;102248.13;;;21.38;29.11
7052;BME280;3567;52.444;13.556;2023-05-03T13:10:33;102249.72;;;20.97;28.45
7052;BME280;3567;52.444;13.556;2023-05-03T13:12:59;102256.56;;;21.00;30.51
7052;BME280;3567;52.444;13.556;2023-05-03T13:15:25;102260.91;;;21.33;29.94
7052;BME280;3567;52.444;13.556;2023-05-03T13:17:51;102242.56;;;21.76;29.08
7052;BME280;3567;52.444;13.556;2023-05-03T13:20:17;102239.63;;;21.97;28.31
7052;BME280;3567;52.444;13.556;2023-05-03T13:22:45;102241.22;;;21.88;28.41
7052;BME280;3567;52.444;13.556;2023-05-03T13:25:11;102240.56;;;21.56;28.55
7052;BME280;3567;52.444;13.556;2023-05-03T13:27:37;102227.22;;;21.12;29.35